• Join FlightAware (Why Join?)
  • Login
  • US Flag 
09:21AM EDT


 

Airport Tracker/Info


-or-


 

Live Flight TrackerFlight Track Log ✈ RPA3457 ✈ 27-Apr-2013 ✈ KBTV - KDCA

Flight Track Log - Related Links

Times and Time Zones

All times are in EDT time to prevent confusion due to time zone crossing. See the RPA3457 flight status page for this flight to view local times or setup timezone preferences in your user account.

Time Position Orientation Groundspeed Altitude Reporting Facility
EDT Latitude Longitude Course Direction KTS MPH feet Rate Location/Type
08:06AM 44.1120 -73.2830 195° South  Level FlightAware Approximate
08:07AM 43.9927 -73.3247 194° South  Level FlightAware Approximate
08:07AM 44.2697 -73.1444 188° South 273 314 9,800  Level Boston Center
08:08AM 43.8734 -73.3663 195° South  Level FlightAware Approximate
08:08AM 44.1903 -73.1842 200° South 284 327 12,300  Level Boston Center
08:09AM 43.7547 -73.4109 195° South  Level FlightAware Approximate
08:09AM 44.1189 -73.2497 213° Southwest 301 346 15,800  Level Boston Center
08:10AM 43.6362 -73.4563 198° South  Level FlightAware Approximate
08:10AM 44.0581 -73.3125 217° Southwest 306 352 18,500  Level Boston Center
08:11AM 43.5193 -73.5094 198° South  Level FlightAware Approximate
08:11AM 43.9722 -73.3458 196° South 316 364 20,400  Level Boston Center
08:12AM 43.3998 -73.5467 188° South  Level FlightAware Approximate
08:12AM 43.8719 -73.3847 196° South 361 415 22,900  Level Boston Center
08:13AM 43.7736 -73.4233 196° South 373 429 25,000 1,980 Climbing Boston Center
08:14AM 43.6692 -73.4619 195° South 381 438 26,900 1,800 Climbing Boston Center
08:15AM 43.5625 -73.5003 195° South 386 444 28,700 1,620 Climbing Boston Center
08:16AM 43.4558 -73.5414 196° South 396 456 30,200 1,260 Climbing Boston Center
08:17AM 43.3450 -73.5819 195° South 402 463 31,300 900 Climbing Boston Center
08:18AM 43.2342 -73.6200 194° South 407 468 32,000 300 Climbing Boston Center
08:19AM 43.1050 -73.6258 182° South 419 482 32,000  Level Boston Center
08:20AM 42.9881 -73.6408 185° South 425 489 32,000  Level Boston Center
08:21AM 42.8692 -73.6525 184° South 425 489 32,000  Level Boston Center
08:22AM 42.7564 -73.6644 184° South 419 482 32,000  Level Boston Center
08:23AM 42.6375 -73.6733 183° South 425 489 32,000  Level Boston Center
08:24AM 42.5228 -73.6853 184° South 425 489 32,000  Level Boston Center
08:25AM 42.4017 -73.6969 184° South 425 489 32,000  Level Boston Center
08:26AM 42.2850 -73.6944 179° South 425 489 32,000  Level Boston Center
08:27AM 42.1722 -73.7147 188° South 434 499 32,000  Level Boston Center
08:28AM 42.0556 -73.7264 184° South 434 499 32,000  Level Boston Center
08:29AM 41.9367 -73.7350 183° South 434 499 32,000 -600 Level Boston Center
08:30AM 41.7217 -73.7506 183° South 434 499 30,300 -1,080 Descending New York Center
08:31AM 41.6047 -73.7592 183° South 434 499 29,000 -1,200 Descending New York Center
08:32AM 41.4797 -73.7700 184° South 422 486 28,000 -540 Descending New York Center
08:33AM 41.3647 -73.7814 184° South 422 486 28,000  Level New York Center
08:34AM 41.2458 -73.7900 183° South 427 491 28,000  Level New York Center
08:35AM 41.1322 -73.8400 198° South 423 487 28,000  Level New York Center
08:36AM 41.0583 -73.9575 230° Southwest 403 464 28,000  Level New York Center
08:37AM 40.9883 -74.0781 232° Southwest 403 464 28,000  Level New York Center
08:38AM 40.9119 -74.1978 230° Southwest 424 488 28,000  Level New York Center
08:39AM 40.8417 -74.3150 232° Southwest 424 488 28,000  Level New York Center
08:40AM 40.7692 -74.4372 232° Southwest 424 488 28,000 -300 Level New York Center
08:41AM 40.6969 -74.5539 231° Southwest 429 494 27,400 -960 Descending New York Center
08:42AM 40.6331 -74.6597 232° Southwest 429 494 26,100 -1,320 Descending New York Center
08:43AM 40.5606 -74.7731 230° Southwest 424 488 24,900 -1,200 Descending New York Center
08:44AM 40.4881 -74.8778 228° Southwest 410 472 23,800 -1,500 Descending New York Center
08:45AM 40.4133 -74.9853 228° Southwest 399 459 22,000 -900 Descending New York Center
08:46AM 40.3389 -75.0869 226° Southwest 399 459 22,000  Level New York Center
08:47AM 40.3014 -75.2017 247° West 385 443 22,000  Level New York Center
08:48AM 40.2531 -75.3153 241° Southwest 360 414 22,000  Level New York Center
08:49AM 40.1706 -75.4050 220° Southwest 377 434 22,000  Level New York Center
08:50AM 40.0833 -75.4997 220° Southwest 390 449 22,000  Level New York Center
08:51AM 40.0006 -75.5889 220° Southwest 395 455 22,000  Level New York Center
08:52AM 39.9153 -75.6833 220° Southwest 395 455 22,000 -300 Level New York Center
08:53AM 39.8583 -75.7956 237° Southwest 395 455 21,400 -960 Descending New York Center
08:54AM 39.7972 -75.9100 235° Southwest 390 449 20,100 -1,500 Descending New York Center
08:55AM 39.7294 -76.0292 234° Southwest 390 449 18,500 -1,920 Descending New York Center
08:56AM 39.6769 -76.1306 236° Southwest 378 435 16,300 -2,400 Descending New York Center
08:57AM 39.6172 -76.2472 236° Southwest 378 435 13,700 -2,040 Descending New York Center
08:59AM 39.5333 -76.3500 223° Southwest 348 400 12,000 -840 Descending Potomac TRACON
08:59AM 39.4667 -76.4167 218° Southwest 350 403 12,000  Level Potomac TRACON
09:01AM 39.3667 -76.4833 207° Southwest 352 405 12,000  Level Potomac TRACON
09:01AM 39.3000 -76.5500 218° Southwest 351 404 12,000 -780 Level Potomac TRACON
09:03AM 39.2000 -76.6333 213° Southwest 330 380 10,500 -1,020 Descending Potomac TRACON
09:03AM 39.1500 -76.6833 218° Southwest 292 336 10,000 -300 Descending Potomac TRACON
09:04AM 39.1000 -76.7500 226° Southwest 291 335 10,000 -60 Level Potomac TRACON
09:05AM 39.0333 -76.8167 218° Southwest 264 304 9,900 -840 Descending Potomac TRACON
09:06AM 38.9833 -76.8833 226° Southwest 249 287 8,500 -1,440 Descending Potomac TRACON
09:07AM 38.9333 -76.9333 218° Southwest 246 283 7,200 -1,320 Descending Potomac TRACON
09:08AM 38.8833 -76.9500 195° South 229 264 6,000 -660 Descending Potomac TRACON
09:09AM 38.8333 -76.9500 180° South 213 245 6,000  Level Potomac TRACON
09:10AM 38.7667 -76.9500 180° South 206 237 6,000  Level Potomac TRACON
09:11AM 38.7167 -76.9333 165° South 202 232 6,000 -720 Level Potomac TRACON
09:12AM 38.6500 -76.9333 180° South 197 227 4,600 -1,080 Descending Potomac TRACON
09:13AM 38.6000 -76.9333 180° South 199 229 4,000 -360 Descending Potomac TRACON
09:14AM 38.5500 -76.9167 165° South 198 228 4,000  Level Potomac TRACON
09:15AM 38.5333 -76.9667 247° West 217 250 4,000 -660 Level Potomac TRACON
09:16AM 38.6000 -76.9833 349° North 200 230 2,700 -840 Descending Potomac TRACON
09:17AM 38.6333 -77.0000 339° North 197 227 2,500 -120 Descending Potomac TRACON
09:18AM 38.6833 -77.0167 345° North 184 212 2,500  Level Potomac TRACON